Time;durP1;ratioP1;P1;durP2;ratioP2;P2;SDS_P1;SDS_P2;PMS_P1;PMS_P2;Temp;Humidity;BMP_temperature;BMP_pressure;BME280_temperature;BME280_humidity;BME280_pressure;Samples;Min_cycle;Max_cycle;Signal;HPM_P1;HPM_P2
2022/10/24 00:00:24;;;;;;;;;;;;;;;16.31;62.09;100451.47;4973476;28;20456;-64
2022/10/24 00:02:49;;;;;;;;;;;;;;;16.30;61.87;100452.41;4973600;28;19926;-64
2022/10/24 00:05:14;;;;;;;;;;;;;;;16.32;61.94;100447.94;4971294;28;19977;-63
2022/10/24 00:07:40;;;;;;;;;;;;;;;16.33;62.01;100452.28;4972826;28;19928;-64
2022/10/24 00:10:06;;;;;;;;;;;;;;;16.42;62.07;100440.41;4971732;28;19928;-64
2022/10/24 00:12:31;;;;;;;;;;;;;;;16.46;61.81;100437.56;4971783;28;19928;-63
2022/10/24 00:14:57;;;;;;;;;;;;;;;16.43;61.92;100435.03;4973331;28;19922;-65
2022/10/24 00:17:22;;;;;;;;;;;;;;;16.43;62.16;100431.53;4972807;28;20009;-64
2022/10/24 00:19:47;;;;;;;;;;;;;;;16.40;61.91;100429.88;4971945;28;19922;-64
2022/10/24 00:22:13;;;;;;;;;;;;;;;16.47;62.04;100435.75;4975549;28;20305;-64
2022/10/24 00:24:38;;;;;;;;;;;;;;;16.63;61.50;100435.91;4974263;28;20922;-64
2022/10/24 00:27:03;;;;;;;;;;;;;;;16.66;61.36;100428.69;4976547;28;19945;-64
2022/10/24 00:29:29;;;;;;;;;;;;;;;16.57;61.30;100433.56;4975581;28;19926;-64
2022/10/24 00:31:54;;;;;;;;;;;;;;;16.68;60.99;100423.31;4977317;28;20405;-64
2022/10/24 00:34:19;;;;;;;;;;;;;;;16.67;60.70;100419.78;5007578;28;19946;-64
2022/10/24 00:36:44;;;;;;;;;;;;;;;16.62;61.09;100416.50;4976419;28;20306;-64
2022/10/24 00:39:10;;;;;;;;;;;;;;;16.49;61.51;100416.19;4976297;28;19945;-64
2022/10/24 00:41:37;;;;;;;;;;;;;;;15.74;64.24;100421.28;4976804;28;19980;-64
2022/10/24 00:44:21;;;;;;;;;;;;;;;15.62;64.56;100427.06;4975268;28;19914;-64
2022/10/24 00:46:48;;;;;;;;;;;;;;;16.21;62.78;100426.31;4977209;28;20440;-63
2022/10/24 00:49:16;;;;;;;;;;;;;;;16.20;62.69;100414.88;4975804;28;19922;-64
2022/10/24 00:51:42;;;;;;;;;;;;;;;16.26;62.35;100419.88;4969884;28;19917;-65
2022/10/24 00:54:09;;;;;;;;;;;;;;;16.32;62.56;100418.75;4975252;28;19925;-63
2022/10/24 00:56:36;;;;;;;;;;;;;;;16.30;62.64;100415.31;4974499;28;19992;-64
2022/10/24 00:59:04;;;;;;;;;;;;;;;15.69;63.96;100410.03;4975795;28;20325;-64
2022/10/24 01:01:30;;;;;;;;;;;;;;;15.86;63.81;100404.88;4973826;28;20374;-64
2022/10/24 01:03:55;;;;;;;;;;;;;;;15.64;64.23;100399.59;5008051;28;19925;-64
2022/10/24 01:06:20;;;;;;;;;;;;;;;15.20;65.73;100390.81;4975124;28;19922;-64
2022/10/24 01:08:45;;;;;;;;;;;;;;;15.47;65.75;100394.97;4974134;28;19941;-64
2022/10/24 01:11:29;;;;;;;;;;;;;;;16.11;63.44;100395.84;4975337;28;19929;-64
2022/10/24 01:14:00;;;;;;;;;;;;;;;16.29;63.01;100388.88;4971134;28;20309;-64
2022/10/24 01:16:36;;;;;;;;;;;;;;;16.34;62.88;100387.72;4976176;28;19918;-64
2022/10/24 01:19:10;;;;;;;;;;;;;;;16.26;63.04;100381.91;4974600;28;19925;-64
2022/10/24 01:21:41;;;;;;;;;;;;;;;16.39;62.54;100377.75;4974322;28;19929;-64
2022/10/24 01:24:33;;;;;;;;;;;;;;;16.38;62.74;100376.03;4975970;28;19926;-63
2022/10/24 01:27:04;;;;;;;;;;;;;;;16.45;62.41;100366.88;4958072;28;20056;-64
2022/10/24 01:29:39;;;;;;;;;;;;;;;16.48;62.49;100356.13;4975698;28;19922;-63
2022/10/24 01:32:13;;;;;;;;;;;;;;;15.99;64.03;100358.34;4975031;28;19918;-62
2022/10/24 01:34:43;;;;;;;;;;;;;;;16.33;63.24;100356.84;4974857;28;19918;-63
2022/10/24 01:37:12;;;;;;;;;;;;;;;16.50;62.72;100353.41;4975848;28;20290;-63
2022/10/24 01:39:45;;;;;;;;;;;;;;;16.48;62.70;100342.03;4975348;28;20017;-64
2022/10/24 01:42:13;;;;;;;;;;;;;;;15.85;64.85;100338.72;4976047;28;19948;-63
2022/10/24 01:44:41;;;;;;;;;;;;;;;15.82;65.11;100331.75;4972669;28;20358;-63
2022/10/24 01:47:25;;;;;;;;;;;;;;;15.77;65.22;100316.06;4974735;28;20416;-63
2022/10/24 01:49:58;;;;;;;;;;;;;;;15.84;65.11;100324.59;4974935;28;19918;-64
2022/10/24 01:52:26;;;;;;;;;;;;;;;15.75;65.44;100323.19;4973893;28;20021;-65
2022/10/24 01:54:52;;;;;;;;;;;;;;;15.36;67.03;100315.19;4973980;28;19922;-64
2022/10/24 01:57:18;;;;;;;;;;;;;;;15.67;66.30;100313.88;4974118;28;19922;-65
2022/10/24 01:59:47;;;;;;;;;;;;;;;15.73;65.70;100308.31;4973532;28;19918;-65
2022/10/24 02:02:22;;;;;;;;;;;;;;;15.80;65.90;100304.47;4974638;28;19925;-65
2022/10/24 02:04:54;;;;;;;;;;;;;;;15.52;66.63;100302.16;4970406;28;19925;-64
2022/10/24 02:07:21;;;;;;;;;;;;;;;15.37;67.12;100303.66;4973425;28;20304;-64
2022/10/24 02:09:48;;;;;;;;;;;;;;;15.32;67.28;100305.66;4974518;28;19918;-64
2022/10/24 02:12:15;;;;;;;;;;;;;;;15.41;67.22;100302.59;4973978;28;20366;-65
2022/10/24 02:14:46;;;;;;;;;;;;;;;15.38;67.06;100285.97;4970810;28;19926;-65
2022/10/24 02:17:11;;;;;;;;;;;;;;;15.68;66.91;100279.38;4975039;28;19960;-65
2022/10/24 02:19:37;;;;;;;;;;;;;;;15.52;66.70;100284.47;4974068;28;19945;-65
2022/10/24 02:22:09;;;;;;;;;;;;;;;15.46;67.08;100275.91;4973896;28;20012;-64
2022/10/24 02:24:40;;;;;;;;;;;;;;;15.71;66.93;100278.38;4973173;28;19918;-65
2022/10/24 02:27:08;;;;;;;;;;;;;;;16.16;64.69;100278.09;4974284;28;19917;-63
2022/10/24 02:29:50;;;;;;;;;;;;;;;15.72;66.09;100288.91;4974409;28;19925;-64
2022/10/24 02:32:19;;;;;;;;;;;;;;;15.59;66.65;100297.41;4973671;28;19960;-64
2022/10/24 02:34:45;;;;;;;;;;;;;;;15.58;66.97;100293.91;4968369;28;19925;-63
2022/10/24 02:37:11;;;;;;;;;;;;;;;15.99;65.82;100286.78;4974262;28;19920;-64
2022/10/24 02:39:38;;;;;;;;;;;;;;;16.29;64.53;100286.34;4974152;28;19961;-65
2022/10/24 02:42:04;;;;;;;;;;;;;;;16.41;64.12;100288.41;4973398;28;19920;-64
2022/10/24 02:44:30;;;;;;;;;;;;;;;15.81;65.87;100287.66;4973466;28;19922;-64
2022/10/24 02:46:57;;;;;;;;;;;;;;;16.18;65.00;100294.78;4974174;28;19922;-64
2022/10/24 02:49:22;;;;;;;;;;;;;;;15.69;66.34;100288.19;4972810;28;20378;-64
2022/10/24 02:51:48;;;;;;;;;;;;;;;16.71;63.12;100282.56;4974461;28;19964;-64
2022/10/24 02:54:14;;;;;;;;;;;;;;;16.27;64.46;100288.19;4973832;28;19925;-64
2022/10/24 02:56:43;;;;;;;;;;;;;;;16.19;64.72;100279.72;4971735;28;19922;-65
2022/10/24 02:59:08;;;;;;;;;;;;;;;16.37;64.06;100275.38;4974429;28;19925;-63
2022/10/24 03:01:33;;;;;;;;;;;;;;;16.23;64.51;100270.69;4973665;28;19918;-64
2022/10/24 03:03:59;;;;;;;;;;;;;;;16.14;65.08;100272.00;4974461;28;19944;-65
2022/10/24 03:06:24;;;;;;;;;;;;;;;16.10;65.21;100266.91;4972392;28;19929;-63
2022/10/24 03:08:49;;;;;;;;;;;;;;;16.11;64.75;100265.97;4973904;28;19926;-63
2022/10/24 03:11:14;;;;;;;;;;;;;;;16.21;65.01;100261.97;4972812;28;19973;-64
2022/10/24 03:13:40;;;;;;;;;;;;;;;16.18;64.95;100259.47;4973650;28;19922;-64
2022/10/24 03:16:05;;;;;;;;;;;;;;;16.14;65.12;100256.09;4973214;28;20364;-63
2022/10/24 03:18:30;;;;;;;;;;;;;;;16.25;64.67;100258.25;4973303;28;19918;-65
2022/10/24 03:20:56;;;;;;;;;;;;;;;16.26;64.52;100254.66;4973928;28;19917;-63
2022/10/24 03:23:21;;;;;;;;;;;;;;;16.16;64.92;100248.09;4973170;28;19965;-64
2022/10/24 03:25:47;;;;;;;;;;;;;;;16.21;64.67;100238.97;4973218;28;19922;-63
2022/10/24 03:28:12;;;;;;;;;;;;;;;16.21;64.85;100232.81;4973777;28;20389;-63
2022/10/24 03:30:37;;;;;;;;;;;;;;;16.24;64.40;100228.22;4973331;28;20000;-64
2022/10/24 03:33:03;;;;;;;;;;;;;;;16.26;64.47;100223.69;4972211;28;19925;-63
2022/10/24 03:35:28;;;;;;;;;;;;;;;16.24;64.52;100216.78;4972125;28;20374;-64
2022/10/24 03:37:53;;;;;;;;;;;;;;;16.14;64.51;100211.03;4973825;28;19938;-64
2022/10/24 03:40:19;;;;;;;;;;;;;;;16.12;64.82;100209.41;4968491;28;19957;-63
2022/10/24 03:42:44;;;;;;;;;;;;;;;16.12;64.64;100202.31;4974164;28;20020;-63
2022/10/24 03:45:09;;;;;;;;;;;;;;;16.04;65.05;100200.94;4974220;28;19933;-64
2022/10/24 03:47:35;;;;;;;;;;;;;;;15.97;65.28;100209.19;5000674;28;19968;-64
2022/10/24 03:50:00;;;;;;;;;;;;;;;15.97;65.24;100225.06;4973985;28;20065;-64
2022/10/24 03:52:25;;;;;;;;;;;;;;;16.08;64.90;100234.31;4974342;28;19922;-66
2022/10/24 03:54:51;;;;;;;;;;;;;;;16.08;64.98;100239.59;4975429;28;19914;-66
2022/10/24 03:57:16;;;;;;;;;;;;;;;16.61;63.27;100233.56;4975988;28;19922;-66
2022/10/24 03:59:41;;;;;;;;;;;;;;;16.26;64.08;100244.06;4978211;28;19922;-66
2022/10/24 04:02:07;;;;;;;;;;;;;;;16.22;64.30;100243.34;4976800;28;19922;-65
2022/10/24 04:04:32;;;;;;;;;;;;;;;16.17;64.48;100244.50;4976775;28;20006;-64
2022/10/24 04:06:59;;;;;;;;;;;;;;;16.21;64.41;100236.31;4976119;28;20377;-65
2022/10/24 04:09:25;;;;;;;;;;;;;;;16.22;64.32;100239.81;4978618;28;20008;-65
2022/10/24 04:11:52;;;;;;;;;;;;;;;16.20;64.57;100225.81;4977593;28;19961;-65
2022/10/24 04:14:17;;;;;;;;;;;;;;;16.24;64.50;100224.72;4977128;28;19969;-65
2022/10/24 04:16:42;;;;;;;;;;;;;;;16.20;64.32;100221.34;4977123;28;20333;-65
2022/10/24 04:19:09;;;;;;;;;;;;;;;16.21;64.35;100217.78;4977690;28;19922;-64
2022/10/24 04:21:34;;;;;;;;;;;;;;;16.19;64.53;100203.72;4977712;28;19976;-65
2022/10/24 04:24:00;;;;;;;;;;;;;;;16.15;64.73;100198.63;4977515;28;19926;-65
2022/10/24 04:26:25;;;;;;;;;;;;;;;16.17;64.82;100191.47;4977997;28;19922;-64
2022/10/24 04:28:50;;;;;;;;;;;;;;;16.17;64.73;100181.75;4976583;28;19922;-65
2022/10/24 04:31:16;;;;;;;;;;;;;;;16.06;65.00;100180.53;4976943;28;19929;-64
2022/10/24 04:33:41;;;;;;;;;;;;;;;16.36;64.20;100170.25;4977738;28;20013;-63
2022/10/24 04:36:06;;;;;;;;;;;;;;;16.05;65.20;100170.88;4977778;28;19921;-64
2022/10/24 04:38:32;;;;;;;;;;;;;;;16.04;65.21;100172.66;4975714;28;19928;-63
2022/10/24 04:40:57;;;;;;;;;;;;;;;16.04;65.08;100164.72;4977460;28;20385;-63
2022/10/24 04:43:23;;;;;;;;;;;;;;;16.13;65.06;100171.34;4975017;28;19922;-62
2022/10/24 04:45:48;;;;;;;;;;;;;;;16.14;64.85;100170.41;4977272;28;19929;-63
2022/10/24 04:48:14;;;;;;;;;;;;;;;16.19;64.68;100173.69;4974671;28;19922;-64
2022/10/24 04:50:40;;;;;;;;;;;;;;;16.21;64.74;100183.31;4976204;28;19925;-64
2022/10/24 04:53:06;;;;;;;;;;;;;;;16.19;64.92;100190.47;4976578;28;19910;-63
2022/10/24 04:55:32;;;;;;;;;;;;;;;16.14;64.97;100183.66;4988699;28;19917;-63
2022/10/24 04:57:57;;;;;;;;;;;;;;;16.17;65.02;100187.03;4997152;28;19996;-63
2022/10/24 05:00:22;;;;;;;;;;;;;;;16.11;65.04;100192.63;4996917;28;20281;-63
2022/10/24 05:02:47;;;;;;;;;;;;;;;16.13;64.95;100195.22;4996553;28;19941;-63
2022/10/24 05:05:13;;;;;;;;;;;;;;;16.15;64.90;100198.63;4996944;28;19914;-63
2022/10/24 05:07:38;;;;;;;;;;;;;;;16.20;64.85;100209.91;4984088;28;19945;-63
2022/10/24 05:10:04;;;;;;;;;;;;;;;16.30;64.59;100213.81;4971795;28;19933;-62
2022/10/24 05:12:29;;;;;;;;;;;;;;;16.28;64.61;100226.28;4977579;28;20409;-63
2022/10/24 05:14:55;;;;;;;;;;;;;;;16.31;64.51;100228.78;4974942;28;19960;-63
2022/10/24 05:17:20;;;;;;;;;;;;;;;16.38;64.30;100235.50;4977246;28;19984;-63
2022/10/24 05:19:45;;;;;;;;;;;;;;;16.33;64.38;100236.69;4975259;28;19913;-63
2022/10/24 05:22:11;;;;;;;;;;;;;;;16.36;64.53;100242.69;4974636;28;19945;-65
2022/10/24 05:24:36;;;;;;;;;;;;;;;16.28;64.54;100236.91;4977307;28;19922;-64
2022/10/24 05:27:02;;;;;;;;;;;;;;;16.39;64.30;100244.31;4977240;28;19993;-64
2022/10/24 05:29:27;;;;;;;;;;;;;;;16.38;64.22;100243.47;4977023;28;20281;-65
2022/10/24 05:31:52;;;;;;;;;;;;;;;16.37;64.39;100228.50;4976636;28;19949;-65
2022/10/24 05:34:19;;;;;;;;;;;;;;;16.38;64.31;100229.34;4976392;28;19918;-64
2022/10/24 05:36:44;;;;;;;;;;;;;;;16.36;64.51;100233.88;4976633;28;19921;-63
2022/10/24 05:39:10;;;;;;;;;;;;;;;16.37;64.53;100235.59;4981195;28;19922;-65
2022/10/24 05:41:35;;;;;;;;;;;;;;;16.42;64.48;100237.09;4972739;28;19922;-64
2022/10/24 05:44:00;;;;;;;;;;;;;;;16.51;64.19;100241.94;4973079;28;20056;-64
2022/10/24 05:46:26;;;;;;;;;;;;;;;16.45;64.28;100234.28;4975975;28;20001;-64
2022/10/24 05:48:51;;;;;;;;;;;;;;;16.43;64.29;100230.84;4974896;28;20005;-64
2022/10/24 05:51:16;;;;;;;;;;;;;;;16.47;64.21;100237.72;4976227;28;19941;-64
2022/10/24 05:53:42;;;;;;;;;;;;;;;16.48;64.19;100236.81;4976009;28;19921;-64
2022/10/24 05:56:07;;;;;;;;;;;;;;;16.45;64.47;100234.28;4974417;28;19922;-64
2022/10/24 05:58:33;;;;;;;;;;;;;;;16.41;64.58;100229.22;4974274;28;19918;-64
2022/10/24 06:00:58;;;;;;;;;;;;;;;16.44;64.41;100223.78;4975320;28;19968;-63
2022/10/24 06:03:23;;;;;;;;;;;;;;;16.43;64.22;100229.97;4975538;28;20389;-65
2022/10/24 06:05:49;;;;;;;;;;;;;;;16.41;64.33;100216.81;4974799;28;20301;-64
2022/10/24 06:08:14;;;;;;;;;;;;;;;16.34;64.58;100207.44;4975829;28;19922;-64
2022/10/24 06:10:39;;;;;;;;;;;;;;;16.33;64.58;100204.88;4975403;28;20275;-64
2022/10/24 06:13:05;;;;;;;;;;;;;;;16.18;65.13;100207.31;4973805;28;19918;-64
2022/10/24 06:15:30;;;;;;;;;;;;;;;16.16;65.29;100200.38;4975179;28;20305;-64
2022/10/24 06:17:55;;;;;;;;;;;;;;;16.43;64.79;100198.16;4974829;28;19944;-64
2022/10/24 06:20:21;;;;;;;;;;;;;;;16.41;64.47;100185.00;4971069;28;19950;-63
2022/10/24 06:22:47;;;;;;;;;;;;;;;16.42;64.49;100176.09;4974308;28;19918;-63
2022/10/24 06:25:12;;;;;;;;;;;;;;;16.42;64.62;100169.94;4979738;28;19918;-64
2022/10/24 06:27:38;;;;;;;;;;;;;;;16.40;64.64;100170.03;4975516;28;19918;-64
2022/10/24 06:30:04;;;;;;;;;;;;;;;16.44;64.65;100168.09;4974502;28;19930;-63
2022/10/24 06:32:29;;;;;;;;;;;;;;;16.47;64.44;100168.75;4970421;28;20333;-62
2022/10/24 06:34:54;;;;;;;;;;;;;;;16.49;64.35;100155.44;4969067;28;19922;-64
2022/10/24 06:37:20;;;;;;;;;;;;;;;16.66;64.04;100157.25;4973372;28;19925;-64
2022/10/24 06:39:45;;;;;;;;;;;;;;;16.63;64.01;100152.94;4971323;28;19984;-64
2022/10/24 06:42:10;;;;;;;;;;;;;;;16.74;64.00;100148.00;4975353;28;19981;-64
2022/10/24 06:44:37;;;;;;;;;;;;;;;16.73;64.03;100153.41;4974983;28;19929;-64
2022/10/24 06:47:02;;;;;;;;;;;;;;;16.70;63.96;100153.50;4974159;28;19922;-64
2022/10/24 06:49:28;;;;;;;;;;;;;;;17.20;62.55;100153.59;4972941;28;19917;-63
2022/10/24 06:51:53;;;;;;;;;;;;;;;17.26;62.25;100157.72;4979846;28;19969;-64
2022/10/24 06:54:18;;;;;;;;;;;;;;;17.34;61.82;100155.50;4974580;28;19929;-64
2022/10/24 06:56:43;;;;;;;;;;;;;;;17.34;62.03;100160.81;4974909;28;19932;-64
2022/10/24 06:59:10;;;;;;;;;;;;;;;17.20;62.19;100166.03;4974407;28;19917;-65
2022/10/24 07:01:35;;;;;;;;;;;;;;;17.29;62.40;100164.69;4974739;28;19917;-64
2022/10/24 07:04:00;;;;;;;;;;;;;;;17.18;62.53;100163.44;4974967;28;19976;-65
2022/10/24 07:06:27;;;;;;;;;;;;;;;17.48;61.67;100163.63;4975492;28;20282;-65
2022/10/24 07:08:53;;;;;;;;;;;;;;;17.52;61.60;100166.13;4975629;28;19918;-64
2022/10/24 07:11:19;;;;;;;;;;;;;;;17.51;61.22;100175.00;4974042;28;20384;-64
2022/10/24 07:13:45;;;;;;;;;;;;;;;17.06;62.87;100182.66;4981596;28;19917;-63
2022/10/24 07:16:10;;;;;;;;;;;;;;;17.03;63.10;100187.25;4992606;28;19917;-63
2022/10/24 07:18:35;;;;;;;;;;;;;;;17.03;63.33;100188.09;4984412;28;19953;-64
2022/10/24 07:21:05;;;;;;;;;;;;;;;17.01;63.66;100197.09;4974127;28;20296;-62
2022/10/24 07:23:31;;;;;;;;;;;;;;;17.07;63.24;100199.44;4974684;28;20309;-66
2022/10/24 07:26:04;;;;;;;;;;;;;;;17.24;62.71;100200.28;4974680;28;20004;-65
2022/10/24 07:28:29;;;;;;;;;;;;;;;17.25;62.63;100206.47;4974841;28;19914;-64
2022/10/24 07:30:55;;;;;;;;;;;;;;;17.31;62.61;100208.78;4975017;28;20434;-64
2022/10/24 07:33:20;;;;;;;;;;;;;;;17.36;62.32;100212.06;4975234;28;19925;-64
2022/10/24 07:35:45;;;;;;;;;;;;;;;17.36;62.15;100204.09;4974914;28;19933;-64
2022/10/24 07:38:10;;;;;;;;;;;;;;;17.33;62.45;100206.91;4974906;28;20401;-65
2022/10/24 07:40:36;;;;;;;;;;;;;;;17.36;62.47;100209.41;4974823;28;19918;-64
2022/10/24 07:43:01;;;;;;;;;;;;;;;17.41;62.43;100202.06;4975074;28;20012;-65
2022/10/24 07:45:28;;;;;;;;;;;;;;;17.34;62.52;100205.13;4972330;28;20009;-64
2022/10/24 07:47:54;;;;;;;;;;;;;;;17.47;62.57;100200.84;4969952;28;19925;-64
2022/10/24 07:50:19;;;;;;;;;;;;;;;17.54;62.24;100194.28;4977260;28;19945;-63
2022/10/24 07:52:44;;;;;;;;;;;;;;;17.60;62.56;100196.63;4973820;28;19925;-65
2022/10/24 07:55:10;;;;;;;;;;;;;;;17.68;62.15;100199.72;4973520;28;20367;-64
2022/10/24 07:57:35;;;;;;;;;;;;;;;17.73;61.86;100184.41;4974847;28;19973;-64
2022/10/24 08:00:00;;;;;;;;;;;;;;;17.79;61.82;100180.56;4974724;28;19972;-65
2022/10/24 08:02:26;;;;;;;;;;;;;;;17.88;61.60;100176.56;4974451;28;19946;-64
2022/10/24 08:04:51;;;;;;;;;;;;;;;17.98;61.32;100178.63;4974367;28;19969;-64
2022/10/24 08:07:16;;;;;;;;;;;;;;;18.05;61.21;100180.94;4974523;28;20266;-66
2022/10/24 08:09:43;;;;;;;;;;;;;;;18.01;61.42;100184.72;4974774;28;19918;-64
2022/10/24 08:12:09;;;;;;;;;;;;;;;18.02;61.40;100183.78;4974582;28;19961;-65
2022/10/24 08:14:36;;;;;;;;;;;;;;;18.45;60.53;100172.41;4974277;28;20334;-63
2022/10/24 08:17:01;;;;;;;;;;;;;;;18.27;61.03;100180.59;4974209;28;20382;-65
2022/10/24 08:19:26;;;;;;;;;;;;;;;18.63;59.59;100178.50;4974369;28;19918;-65
2022/10/24 08:21:52;;;;;;;;;;;;;;;18.06;61.07;100169.34;4974288;28;19922;-65
2022/10/24 08:24:17;;;;;;;;;;;;;;;18.44;60.30;100165.41;4974583;28;19924;-65
2022/10/24 08:26:42;;;;;;;;;;;;;;;18.72;59.28;100168.28;4974101;28;19926;-64
2022/10/24 08:29:10;;;;;;;;;;;;;;;18.86;58.91;100163.84;4974004;28;19918;-64
2022/10/24 08:31:36;;;;;;;;;;;;;;;18.95;58.66;100165.13;4974156;28;19922;-65
2022/10/24 08:34:04;;;;;;;;;;;;;;;18.97;58.38;100162.38;4974570;28;20312;-65
2022/10/24 08:36:31;;;;;;;;;;;;;;;19.01;58.52;100161.22;4974405;28;20374;-64
2022/10/24 08:38:56;;;;;;;;;;;;;;;19.00;58.39;100160.38;4974445;28;19914;-64
2022/10/24 08:41:49;;;;;;;;;;;;;;;18.92;58.59;100166.16;4974349;28;19964;-64
2022/10/24 08:44:21;;;;;;;;;;;;;;;18.88;58.61;100164.63;4972384;28;20374;-65
2022/10/24 08:47:04;;;;;;;;;;;;;;;18.86;58.82;100166.50;4987556;28;20332;-65
2022/10/24 08:49:48;;;;;;;;;;;;;;;18.86;58.87;100174.50;4996646;28;19917;-65
2022/10/24 08:52:13;;;;;;;;;;;;;;;18.74;59.21;100169.03;4958216;29;19914;-65
2022/10/24 08:54:40;;;;;;;;;;;;;;;18.73;59.35;100172.66;4981708;28;19918;-66
2022/10/24 08:57:12;;;;;;;;;;;;;;;18.33;60.25;100170.47;4977412;28;20370;-65
2022/10/24 08:59:37;;;;;;;;;;;;;;;18.58;59.95;100177.03;4976253;28;19941;-65
2022/10/24 09:02:23;;;;;;;;;;;;;;;18.76;59.18;100176.00;4977770;28;20377;-65
2022/10/24 09:05:03;;;;;;;;;;;;;;;18.77;59.18;100182.19;4977534;28;19921;-65
2022/10/24 09:07:28;;;;;;;;;;;;;;;18.04;61.46;100182.75;4976925;28;20009;-65
2022/10/24 09:10:13;;;;;;;;;;;;;;;17.95;61.79;100184.13;4977213;28;20436;-65
2022/10/24 09:12:39;;;;;;;;;;;;;;;17.92;61.83;100186.94;4977255;28;20361;-65
2022/10/24 09:15:12;;;;;;;;;;;;;;;18.03;61.90;100188.13;4977211;28;19925;-65
2022/10/24 09:17:41;;;;;;;;;;;;;;;18.02;62.04;100192.59;4977684;28;19914;-65
2022/10/24 09:20:06;;;;;;;;;;;;;;;18.01;61.90;100182.06;4977202;28;20290;-65
2022/10/24 09:22:33;;;;;;;;;;;;;;;17.98;62.07;100177.75;4976867;28;20385;-65
2022/10/24 09:25:13;;;;;;;;;;;;;;;17.92;62.38;100191.41;4976766;28;20358;-65
2022/10/24 09:27:39;;;;;;;;;;;;;;;18.07;61.96;100184.38;4976804;28;19914;-65
2022/10/24 09:30:06;;;;;;;;;;;;;;;18.06;61.87;100187.97;4975862;28;19936;-65
2022/10/24 09:32:32;;;;;;;;;;;;;;;18.03;62.03;100199.63;4977020;28;20354;-66
2022/10/24 09:35:27;;;;;;;;;;;;;;;18.10;62.14;100202.81;4977123;28;19914;-66
2022/10/24 09:37:54;;;;;;;;;;;;;;;18.14;61.87;100212.31;4968091;28;20294;-66
2022/10/24 09:40:28;;;;;;;;;;;;;;;18.10;62.23;100210.78;4977258;28;19961;-64
2022/10/24 09:42:56;;;;;;;;;;;;;;;18.22;61.60;100215.41;4976196;28;19914;-65
2022/10/24 09:45:28;;;;;;;;;;;;;;;18.23;61.70;100214.47;4977006;28;19921;-65
2022/10/24 09:47:55;;;;;;;;;;;;;;;18.21;61.62;100214.56;4976061;28;19921;-65
2022/10/24 09:50:21;;;;;;;;;;;;;;;18.39;61.21;100210.03;4976649;28;19914;-64
2022/10/24 09:52:48;;;;;;;;;;;;;;;18.46;61.46;100181.25;4975412;28;19922;-65
2022/10/24 09:55:16;;;;;;;;;;;;;;;18.56;61.03;100181.59;4975649;28;19925;-65
2022/10/24 09:57:41;;;;;;;;;;;;;;;18.62;61.06;100174.09;4976391;28;19918;-64
2022/10/24 10:00:18;;;;;;;;;;;;;;;18.86;61.09;100174.50;4972981;28;19949;-63
2022/10/24 10:02:55;;;;;;;;;;;;;;;19.15;60.36;100180.75;4976474;28;19949;-64
2022/10/24 10:05:20;;;;;;;;;;;;;;;19.48;59.22;100182.31;4977079;28;20377;-63
2022/10/24 10:07:47;;;;;;;;;;;;;;;19.68;58.39;100179.28;4976722;28;19918;-64
2022/10/24 10:10:24;;;;;;;;;;;;;;;19.64;58.62;100174.25;4976452;28;20351;-64
2022/10/24 10:12:58;;;;;;;;;;;;;;;19.73;58.70;100167.50;4974958;28;20005;-63
2022/10/24 10:15:29;;;;;;;;;;;;;;;19.89;58.07;100166.41;4975030;28;19933;-65
2022/10/24 10:17:56;;;;;;;;;;;;;;;20.01;57.88;100161.25;4975419;28;19921;-65
2022/10/24 10:20:38;;;;;;;;;;;;;;;20.06;57.82;100154.66;4974822;28;19980;-65
2022/10/24 10:23:21;;;;;;;;;;;;;;;20.07;57.34;100171.56;4974369;28;19918;-63
2022/10/24 10:25:46;;;;;;;;;;;;;;;20.73;55.59;100160.06;4974119;28;19922;-64
2022/10/24 10:28:22;;;;;;;;;;;;;;;20.45;56.39;100170.84;4972442;28;20009;-62
2022/10/24 10:30:53;;;;;;;;;;;;;;;20.66;56.35;100162.28;4971239;28;20440;-65
2022/10/24 10:33:24;;;;;;;;;;;;;;;20.76;56.20;100159.88;4973583;28;20066;-65
2022/10/24 10:36:00;;;;;;;;;;;;;;;20.92;56.01;100149.00;4973369;28;19917;-63
2022/10/24 10:38:44;;;;;;;;;;;;;;;21.04;55.03;100152.66;4968597;28;19930;-64
2022/10/24 10:41:10;;;;;;;;;;;;;;;21.06;55.20;100145.38;4965834;28;19929;-64
2022/10/24 10:43:53;;;;;;;;;;;;;;;21.09;55.17;100147.84;4974737;28;20079;-64
2022/10/24 10:46:37;;;;;;;;;;;;;;;21.05;55.11;100146.34;4974353;28;19922;-64
2022/10/24 10:49:21;;;;;;;;;;;;;;;21.29;54.92;100147.31;4978037;28;19965;-65
2022/10/24 10:51:49;;;;;;;;;;;;;;;21.42;54.58;100146.47;4956379;28;20409;-64
2022/10/24 10:54:39;;;;;;;;;;;;;;;21.47;54.52;100150.56;4970266;28;19960;-64
2022/10/24 10:57:18;;;;;;;;;;;;;;;21.55;54.52;100155.38;4979616;28;19914;-63
2022/10/24 11:00:22;;;;;;;;;;;;;;;21.56;54.41;100154.41;4995367;28;20293;-64
2022/10/24 11:02:57;;;;;;;;;;;;;;;21.46;54.39;100158.66;4953297;29;20414;-65
2022/10/24 11:05:40;;;;;;;;;;;;;;;21.40;54.30;100158.16;4916137;29;20296;-67
2022/10/24 11:08:13;;;;;;;;;;;;;;;21.36;55.00;100163.81;4954408;28;19918;-66
2022/10/24 11:10:42;;;;;;;;;;;;;;;21.11;55.17;100162.81;4974439;28;19917;-67
2022/10/24 11:13:14;;;;;;;;;;;;;;;21.12;55.44;100161.00;4974759;28;19926;-66
2022/10/24 11:15:42;;;;;;;;;;;;;;;21.12;55.44;100161.84;4973989;28;19917;-66
2022/10/24 11:18:14;;;;;;;;;;;;;;;21.03;55.83;100166.97;4974270;28;19926;-66
2022/10/24 11:20:52;;;;;;;;;;;;;;;20.95;55.79;100170.19;4973939;28;19922;-66
2022/10/24 11:23:21;;;;;;;;;;;;;;;20.70;56.37;100164.75;4967490;28;19918;-66
2022/10/24 11:25:57;;;;;;;;;;;;;;;20.66;56.43;100164.09;4973885;28;19918;-66
2022/10/24 11:28:27;;;;;;;;;;;;;;;20.59;56.91;100166.34;4974888;28;19922;-67
2022/10/24 11:30:55;;;;;;;;;;;;;;;20.43;56.99;100177.16;4975097;28;19914;-65
2022/10/24 11:33:26;;;;;;;;;;;;;;;20.42;57.19;100162.06;4971585;28;19929;-65
2022/10/24 11:35:59;;;;;;;;;;;;;;;20.41;57.46;100164.84;4977760;28;19934;-66
2022/10/24 11:38:24;;;;;;;;;;;;;;;20.17;58.02;100159.31;4973864;28;19914;-66
2022/10/24 11:40:54;;;;;;;;;;;;;;;20.29;58.09;100149.66;4973569;28;19914;-65
2022/10/24 11:43:39;;;;;;;;;;;;;;;20.37;57.90;100150.00;4974421;28;19914;-66
2022/10/24 11:46:04;;;;;;;;;;;;;;;20.33;58.99;100156.50;4974691;28;19922;-69
2022/10/24 11:48:32;;;;;;;;;;;;;;;20.41;59.04;100147.03;4974536;28;20340;-70
2022/10/24 11:51:02;;;;;;;;;;;;;;;20.45;59.33;100155.69;4974849;28;19985;-69
2022/10/24 11:53:27;;;;;;;;;;;;;;;20.43;58.30;100154.94;4974827;28;19914;-69
2022/10/24 11:55:59;;;;;;;;;;;;;;;20.36;58.31;100150.97;4974818;28;20320;-70
2022/10/24 11:58:26;;;;;;;;;;;;;;;20.26;58.68;100134.69;4974735;28;19914;-69
2022/10/24 12:01:04;;;;;;;;;;;;;;;20.20;59.04;100135.13;4973712;28;19964;-69
2022/10/24 12:03:36;;;;;;;;;;;;;;;20.15;58.95;100130.09;4974831;28;20325;-68
2022/10/24 12:06:27;;;;;;;;;;;;;;;20.12;59.36;100126.75;4975038;28;19936;-70
2022/10/24 12:09:07;;;;;;;;;;;;;;;20.12;60.12;100124.09;4974877;28;19917;-67
2022/10/24 12:11:59;;;;;;;;;;;;;;;20.09;59.53;100125.13;4974550;28;19914;-70
2022/10/24 12:14:27;;;;;;;;;;;;;;;20.03;59.86;100127.34;4971876;28;20012;-70
2022/10/24 12:17:02;;;;;;;;;;;;;;;19.97;60.10;100122.41;4974088;28;19921;-70
2022/10/24 12:19:27;;;;;;;;;;;;;;;19.94;60.03;100118.97;4977387;28;19965;-68
2022/10/24 12:21:55;;;;;;;;;;;;;;;19.99;59.94;100113.38;4977484;28;19969;-69
2022/10/24 12:24:32;;;;;;;;;;;;;;;20.04;59.77;100123.72;4978536;28;19920;-70
2022/10/24 12:27:01;;;;;;;;;;;;;;;19.97;60.07;100125.09;4978445;28;19961;-69
2022/10/24 12:29:27;;;;;;;;;;;;;;;19.70;60.90;100125.88;4974699;28;19980;-71
2022/10/24 12:31:53;;;;;;;;;;;;;;;19.94;60.24;100123.47;5008312;28;19913;-70
2022/10/24 12:34:18;;;;;;;;;;;;;;;19.76;61.22;100114.84;4977886;28;20029;-69
2022/10/24 12:37:02;;;;;;;;;;;;;;;19.82;60.77;100119.78;4977625;28;19972;-70
2022/10/24 12:39:32;;;;;;;;;;;;;;;19.74;60.85;100119.41;4977930;28;20370;-69
2022/10/24 12:41:58;;;;;;;;;;;;;;;19.67;61.03;100116.28;4976940;28;19930;-69